sensor_id;sensor_type;location;lat;lon;timestamp;P1;durP1;ratioP1;P2;durP2;ratioP2
77040;SDS011;65974;42.664;23.264;2024-03-08T00:02:05;4.43;;;2.72;;
77040;SDS011;65974;42.664;23.264;2024-03-08T00:04:31;4.78;;;2.50;;
77040;SDS011;65974;42.664;23.264;2024-03-08T00:06:56;4.45;;;2.30;;
77040;SDS011;65974;42.664;23.264;2024-03-08T00:09:22;4.75;;;2.40;;
77040;SDS011;65974;42.664;23.264;2024-03-08T00:11:48;3.85;;;2.83;;
77040;SDS011;65974;42.664;23.264;2024-03-08T00:14:15;3.42;;;2.33;;
77040;SDS011;65974;42.664;23.264;2024-03-08T00:16:42;4.28;;;2.72;;
77040;SDS011;65974;42.664;23.264;2024-03-08T00:19:09;3.38;;;2.03;;
77040;SDS011;65974;42.664;23.264;2024-03-08T00:21:34;6.55;;;2.53;;
77040;SDS011;65974;42.664;23.264;2024-03-08T00:24:00;3.97;;;2.63;;
77040;SDS011;65974;42.664;23.264;2024-03-08T00:26:26;5.32;;;2.85;;
77040;SDS011;65974;42.664;23.264;2024-03-08T00:28:52;4.97;;;2.75;;
77040;SDS011;65974;42.664;23.264;2024-03-08T00:31:18;6.18;;;3.20;;
77040;SDS011;65974;42.664;23.264;2024-03-08T00:33:44;7.30;;;3.47;;
77040;SDS011;65974;42.664;23.264;2024-03-08T00:36:09;7.47;;;3.92;;
77040;SDS011;65974;42.664;23.264;2024-03-08T00:38:35;5.57;;;3.50;;
77040;SDS011;65974;42.664;23.264;2024-03-08T00:41:00;6.93;;;3.47;;
77040;SDS011;65974;42.664;23.264;2024-03-08T00:43:27;6.47;;;3.85;;
77040;SDS011;65974;42.664;23.264;2024-03-08T00:45:52;5.40;;;2.92;;
77040;SDS011;65974;42.664;23.264;2024-03-08T00:48:18;6.72;;;3.03;;
77040;SDS011;65974;42.664;23.264;2024-03-08T00:50:44;4.13;;;2.28;;
77040;SDS011;65974;42.664;23.264;2024-03-08T00:53:12;4.38;;;2.03;;
77040;SDS011;65974;42.664;23.264;2024-03-08T00:55:38;3.42;;;1.92;;
77040;SDS011;65974;42.664;23.264;2024-03-08T00:58:05;3.72;;;2.45;;
77040;SDS011;65974;42.664;23.264;2024-03-08T01:00:31;5.88;;;1.85;;
77040;SDS011;65974;42.664;23.264;2024-03-08T01:02:56;4.43;;;1.80;;
77040;SDS011;65974;42.664;23.264;2024-03-08T01:05:22;4.85;;;2.03;;
77040;SDS011;65974;42.664;23.264;2024-03-08T01:07:50;2.67;;;1.42;;
77040;SDS011;65974;42.664;23.264;2024-03-08T01:10:16;4.22;;;2.50;;
77040;SDS011;65974;42.664;23.264;2024-03-08T01:12:42;4.28;;;3.17;;
77040;SDS011;65974;42.664;23.264;2024-03-08T01:17:36;4.57;;;2.83;;
77040;SDS011;65974;42.664;23.264;2024-03-08T01:20:03;5.50;;;3.10;;
77040;SDS011;65974;42.664;23.264;2024-03-08T01:22:29;3.92;;;2.13;;
77040;SDS011;65974;42.664;23.264;2024-03-08T01:24:55;4.55;;;3.05;;
77040;SDS011;65974;42.664;23.264;2024-03-08T01:27:21;4.93;;;3.28;;
77040;SDS011;65974;42.664;23.264;2024-03-08T01:29:47;4.95;;;2.83;;
77040;SDS011;65974;42.664;23.264;2024-03-08T01:32:12;4.45;;;3.35;;
77040;SDS011;65974;42.664;23.264;2024-03-08T01:34:38;4.47;;;2.88;;
77040;SDS011;65974;42.664;23.264;2024-03-08T01:37:04;4.00;;;2.53;;
77040;SDS011;65974;42.664;23.264;2024-03-08T01:39:29;4.55;;;3.00;;
77040;SDS011;65974;42.664;23.264;2024-03-08T01:41:55;4.75;;;2.92;;
77040;SDS011;65974;42.664;23.264;2024-03-08T01:44:20;4.15;;;2.22;;
77040;SDS011;65974;42.664;23.264;2024-03-08T01:46:47;4.10;;;2.63;;
77040;SDS011;65974;42.664;23.264;2024-03-08T01:49:14;5.00;;;2.90;;
77040;SDS011;65974;42.664;23.264;2024-03-08T01:51:43;6.18;;;2.88;;
77040;SDS011;65974;42.664;23.264;2024-03-08T01:54:08;4.80;;;3.30;;
77040;SDS011;65974;42.664;23.264;2024-03-08T01:56:35;4.40;;;2.60;;
77040;SDS011;65974;42.664;23.264;2024-03-08T01:59:03;3.90;;;2.30;;
77040;SDS011;65974;42.664;23.264;2024-03-08T02:01:32;4.25;;;2.50;;
77040;SDS011;65974;42.664;23.264;2024-03-08T02:04:00;4.03;;;2.58;;
77040;SDS011;65974;42.664;23.264;2024-03-08T02:06:25;4.82;;;2.60;;
77040;SDS011;65974;42.664;23.264;2024-03-08T02:08:51;5.07;;;3.08;;
77040;SDS011;65974;42.664;23.264;2024-03-08T02:11:17;3.63;;;2.75;;
77040;SDS011;65974;42.664;23.264;2024-03-08T02:13:43;4.43;;;2.72;;
77040;SDS011;65974;42.664;23.264;2024-03-08T02:16:09;5.30;;;2.78;;
77040;SDS011;65974;42.664;23.264;2024-03-08T02:18:36;4.97;;;2.60;;
77040;SDS011;65974;42.664;23.264;2024-03-08T02:21:04;4.15;;;2.67;;
77040;SDS011;65974;42.664;23.264;2024-03-08T02:23:31;3.70;;;2.50;;
77040;SDS011;65974;42.664;23.264;2024-03-08T02:25:58;4.43;;;2.78;;
77040;SDS011;65974;42.664;23.264;2024-03-08T02:28:24;4.18;;;2.95;;
77040;SDS011;65974;42.664;23.264;2024-03-08T02:30:54;4.35;;;3.22;;
77040;SDS011;65974;42.664;23.264;2024-03-08T02:33:20;3.63;;;2.50;;
77040;SDS011;65974;42.664;23.264;2024-03-08T02:35:49;4.07;;;2.75;;
77040;SDS011;65974;42.664;23.264;2024-03-08T02:38:16;4.93;;;2.83;;
77040;SDS011;65974;42.664;23.264;2024-03-08T02:40:45;4.68;;;2.55;;
77040;SDS011;65974;42.664;23.264;2024-03-08T02:45:38;4.28;;;3.33;;
77040;SDS011;65974;42.664;23.264;2024-03-08T02:48:03;4.50;;;2.65;;
77040;SDS011;65974;42.664;23.264;2024-03-08T02:50:31;3.80;;;2.65;;
77040;SDS011;65974;42.664;23.264;2024-03-08T02:52:57;4.32;;;2.88;;
77040;SDS011;65974;42.664;23.264;2024-03-08T02:55:24;5.03;;;3.00;;
77040;SDS011;65974;42.664;23.264;2024-03-08T02:57:51;4.63;;;2.85;;
77040;SDS011;65974;42.664;23.264;2024-03-08T03:00:17;5.07;;;3.17;;
77040;SDS011;65974;42.664;23.264;2024-03-08T03:02:44;5.43;;;2.80;;
77040;SDS011;65974;42.664;23.264;2024-03-08T03:05:10;5.22;;;2.95;;
77040;SDS011;65974;42.664;23.264;2024-03-08T03:07:36;3.58;;;2.97;;
77040;SDS011;65974;42.664;23.264;2024-03-08T03:10:02;4.75;;;2.40;;
77040;SDS011;65974;42.664;23.264;2024-03-08T03:12:28;4.32;;;2.58;;
77040;SDS011;65974;42.664;23.264;2024-03-08T03:14:55;4.15;;;2.92;;
77040;SDS011;65974;42.664;23.264;2024-03-08T03:17:22;3.80;;;2.83;;
77040;SDS011;65974;42.664;23.264;2024-03-08T03:19:48;3.10;;;2.13;;
77040;SDS011;65974;42.664;23.264;2024-03-08T03:22:13;2.40;;;1.52;;
77040;SDS011;65974;42.664;23.264;2024-03-08T03:24:40;4.57;;;2.40;;
77040;SDS011;65974;42.664;23.264;2024-03-08T03:27:07;4.95;;;2.42;;
77040;SDS011;65974;42.664;23.264;2024-03-08T03:29:39;4.35;;;1.98;;
77040;SDS011;65974;42.664;23.264;2024-03-08T03:32:07;3.83;;;1.98;;
77040;SDS011;65974;42.664;23.264;2024-03-08T03:34:33;2.70;;;1.70;;
77040;SDS011;65974;42.664;23.264;2024-03-08T03:37:02;3.42;;;1.70;;
77040;SDS011;65974;42.664;23.264;2024-03-08T03:39:28;3.00;;;2.10;;
77040;SDS011;65974;42.664;23.264;2024-03-08T03:41:57;3.05;;;2.00;;
77040;SDS011;65974;42.664;23.264;2024-03-08T03:44:23;3.95;;;2.40;;
77040;SDS011;65974;42.664;23.264;2024-03-08T03:46:50;3.42;;;2.15;;
77040;SDS011;65974;42.664;23.264;2024-03-08T03:49:16;2.67;;;1.65;;
77040;SDS011;65974;42.664;23.264;2024-03-08T03:51:42;3.50;;;1.83;;
77040;SDS011;65974;42.664;23.264;2024-03-08T03:54:09;3.50;;;1.98;;
77040;SDS011;65974;42.664;23.264;2024-03-08T03:56:35;6.20;;;2.40;;
77040;SDS011;65974;42.664;23.264;2024-03-08T03:59:01;3.05;;;2.03;;
77040;SDS011;65974;42.664;23.264;2024-03-08T04:01:26;3.50;;;2.08;;
77040;SDS011;65974;42.664;23.264;2024-03-08T04:03:52;3.15;;;1.40;;
77040;SDS011;65974;42.664;23.264;2024-03-08T04:06:17;3.80;;;1.88;;
77040;SDS011;65974;42.664;23.264;2024-03-08T04:08:43;2.25;;;1.38;;
77040;SDS011;65974;42.664;23.264;2024-03-08T04:11:10;3.25;;;1.33;;
77040;SDS011;65974;42.664;23.264;2024-03-08T04:13:35;1.60;;;1.27;;
77040;SDS011;65974;42.664;23.264;2024-03-08T04:16:01;3.00;;;1.92;;
77040;SDS011;65974;42.664;23.264;2024-03-08T04:18:27;4.38;;;1.63;;
77040;SDS011;65974;42.664;23.264;2024-03-08T04:20:53;2.55;;;1.67;;
77040;SDS011;65974;42.664;23.264;2024-03-08T04:23:19;2.92;;;2.00;;
77040;SDS011;65974;42.664;23.264;2024-03-08T04:25:44;2.97;;;1.73;;
77040;SDS011;65974;42.664;23.264;2024-03-08T04:28:10;2.60;;;1.70;;
77040;SDS011;65974;42.664;23.264;2024-03-08T04:30:38;1.45;;;1.08;;
77040;SDS011;65974;42.664;23.264;2024-03-08T04:33:07;2.70;;;1.48;;
77040;SDS011;65974;42.664;23.264;2024-03-08T04:35:33;1.50;;;1.02;;
77040;SDS011;65974;42.664;23.264;2024-03-08T04:37:59;2.03;;;1.30;;
77040;SDS011;65974;42.664;23.264;2024-03-08T04:40:24;2.38;;;1.40;;
77040;SDS011;65974;42.664;23.264;2024-03-08T04:42:50;1.88;;;1.27;;
77040;SDS011;65974;42.664;23.264;2024-03-08T04:45:17;2.60;;;1.20;;
77040;SDS011;65974;42.664;23.264;2024-03-08T04:47:42;2.13;;;1.40;;
77040;SDS011;65974;42.664;23.264;2024-03-08T04:50:08;1.92;;;1.33;;
77040;SDS011;65974;42.664;23.264;2024-03-08T04:52:36;2.75;;;1.20;;
77040;SDS011;65974;42.664;23.264;2024-03-08T04:55:01;2.65;;;1.60;;
77040;SDS011;65974;42.664;23.264;2024-03-08T04:57:30;3.03;;;1.80;;
77040;SDS011;65974;42.664;23.264;2024-03-08T04:59:55;2.80;;;1.48;;
77040;SDS011;65974;42.664;23.264;2024-03-08T05:04:50;2.10;;;1.58;;
77040;SDS011;65974;42.664;23.264;2024-03-08T05:16:58;2.83;;;1.67;;
77040;SDS011;65974;42.664;23.264;2024-03-08T05:25:26;3.00;;;2.30;;
77040;SDS011;65974;42.664;23.264;2024-03-08T05:27:57;4.75;;;2.25;;
77040;SDS011;65974;42.664;23.264;2024-03-08T05:36:57;4.20;;;3.53;;
77040;SDS011;65974;42.664;23.264;2024-03-08T05:45:23;4.72;;;2.85;;
77040;SDS011;65974;42.664;23.264;2024-03-08T05:47:53;4.30;;;2.42;;
77040;SDS011;65974;42.664;23.264;2024-03-08T06:02:19;4.35;;;3.45;;
77040;SDS011;65974;42.664;23.264;2024-03-08T06:04:47;5.43;;;3.08;;
77040;SDS011;65974;42.664;23.264;2024-03-08T06:09:38;3.83;;;2.10;;
77040;SDS011;65974;42.664;23.264;2024-03-08T06:12:04;5.38;;;2.40;;
77040;SDS011;65974;42.664;23.264;2024-03-08T06:14:31;4.22;;;2.63;;
77040;SDS011;65974;42.664;23.264;2024-03-08T06:16:57;4.43;;;2.47;;
77040;SDS011;65974;42.664;23.264;2024-03-08T06:19:22;5.68;;;3.22;;
77040;SDS011;65974;42.664;23.264;2024-03-08T06:21:49;3.42;;;2.45;;
77040;SDS011;65974;42.664;23.264;2024-03-08T06:24:15;3.90;;;2.75;;
77040;SDS011;65974;42.664;23.264;2024-03-08T06:26:40;5.53;;;3.58;;
77040;SDS011;65974;42.664;23.264;2024-03-08T06:29:06;5.18;;;3.33;;
77040;SDS011;65974;42.664;23.264;2024-03-08T06:31:34;5.88;;;3.70;;
77040;SDS011;65974;42.664;23.264;2024-03-08T06:34:04;4.30;;;3.08;;
77040;SDS011;65974;42.664;23.264;2024-03-08T06:36:35;4.75;;;2.88;;
77040;SDS011;65974;42.664;23.264;2024-03-08T06:39:02;6.55;;;3.42;;
77040;SDS011;65974;42.664;23.264;2024-03-08T06:41:34;4.03;;;2.78;;
77040;SDS011;65974;42.664;23.264;2024-03-08T06:44:02;4.57;;;3.47;;
77040;SDS011;65974;42.664;23.264;2024-03-08T06:46:28;7.95;;;3.85;;
77040;SDS011;65974;42.664;23.264;2024-03-08T06:48:53;4.93;;;2.70;;
77040;SDS011;65974;42.664;23.264;2024-03-08T06:51:19;8.30;;;4.32;;
77040;SDS011;65974;42.664;23.264;2024-03-08T06:53:45;6.47;;;3.20;;
77040;SDS011;65974;42.664;23.264;2024-03-08T06:56:10;8.60;;;4.90;;
77040;SDS011;65974;42.664;23.264;2024-03-08T06:58:36;4.88;;;3.17;;
77040;SDS011;65974;42.664;23.264;2024-03-08T07:01:02;7.85;;;4.13;;
77040;SDS011;65974;42.664;23.264;2024-03-08T07:03:32;8.93;;;5.03;;
77040;SDS011;65974;42.664;23.264;2024-03-08T07:05:59;4.30;;;3.50;;
77040;SDS011;65974;42.664;23.264;2024-03-08T07:08:26;8.05;;;3.95;;
77040;SDS011;65974;42.664;23.264;2024-03-08T07:10:53;8.00;;;4.15;;
77040;SDS011;65974;42.664;23.264;2024-03-08T07:13:19;5.40;;;3.45;;
77040;SDS011;65974;42.664;23.264;2024-03-08T07:15:45;9.02;;;7.55;;
77040;SDS011;65974;42.664;23.264;2024-03-08T07:18:11;8.02;;;5.55;;
77040;SDS011;65974;42.664;23.264;2024-03-08T07:20:40;8.40;;;4.80;;
77040;SDS011;65974;42.664;23.264;2024-03-08T07:23:06;11.98;;;6.43;;
77040;SDS011;65974;42.664;23.264;2024-03-08T07:25:33;9.88;;;5.63;;
77040;SDS011;65974;42.664;23.264;2024-03-08T07:28:00;6.13;;;3.58;;
77040;SDS011;65974;42.664;23.264;2024-03-08T07:30:26;5.55;;;3.70;;
77040;SDS011;65974;42.664;23.264;2024-03-08T07:33:10;4.45;;;2.83;;
77040;SDS011;65974;42.664;23.264;2024-03-08T07:35:39;7.22;;;5.43;;
77040;SDS011;65974;42.664;23.264;2024-03-08T07:38:10;6.13;;;2.45;;
77040;SDS011;65974;42.664;23.264;2024-03-08T07:40:37;4.90;;;2.72;;
77040;SDS011;65974;42.664;23.264;2024-03-08T07:43:06;6.93;;;4.80;;
77040;SDS011;65974;42.664;23.264;2024-03-08T07:45:32;6.22;;;3.50;;
77040;SDS011;65974;42.664;23.264;2024-03-08T07:47:57;5.55;;;3.72;;
77040;SDS011;65974;42.664;23.264;2024-03-08T07:50:23;6.60;;;4.10;;
77040;SDS011;65974;42.664;23.264;2024-03-08T07:52:49;15.70;;;5.55;;
77040;SDS011;65974;42.664;23.264;2024-03-08T07:55:14;4.70;;;2.55;;
77040;SDS011;65974;42.664;23.264;2024-03-08T07:57:42;8.95;;;3.67;;
77040;SDS011;65974;42.664;23.264;2024-03-08T08:00:08;7.20;;;5.07;;
77040;SDS011;65974;42.664;23.264;2024-03-08T08:02:35;4.40;;;3.40;;
77040;SDS011;65974;42.664;23.264;2024-03-08T08:05:01;8.93;;;5.20;;
77040;SDS011;65974;42.664;23.264;2024-03-08T08:07:28;6.50;;;3.42;;
77040;SDS011;65974;42.664;23.264;2024-03-08T08:09:54;7.55;;;3.80;;
77040;SDS011;65974;42.664;23.264;2024-03-08T08:12:19;6.40;;;3.95;;
77040;SDS011;65974;42.664;23.264;2024-03-08T08:14:46;8.75;;;4.78;;
77040;SDS011;65974;42.664;23.264;2024-03-08T08:17:11;9.48;;;4.18;;
77040;SDS011;65974;42.664;23.264;2024-03-08T08:19:37;5.38;;;3.53;;
77040;SDS011;65974;42.664;23.264;2024-03-08T08:22:03;7.47;;;4.10;;
77040;SDS011;65974;42.664;23.264;2024-03-08T08:24:29;5.05;;;4.07;;
77040;SDS011;65974;42.664;23.264;2024-03-08T08:26:55;7.60;;;4.28;;
77040;SDS011;65974;42.664;23.264;2024-03-08T08:29:20;6.40;;;3.83;;
77040;SDS011;65974;42.664;23.264;2024-03-08T08:31:47;6.75;;;4.25;;
77040;SDS011;65974;42.664;23.264;2024-03-08T08:34:12;9.45;;;5.00;;
77040;SDS011;65974;42.664;23.264;2024-03-08T08:36:39;7.28;;;4.88;;
77040;SDS011;65974;42.664;23.264;2024-03-08T08:39:05;10.88;;;4.10;;
77040;SDS011;65974;42.664;23.264;2024-03-08T08:41:37;5.63;;;3.13;;
77040;SDS011;65974;42.664;23.264;2024-03-08T08:44:03;6.32;;;3.80;;
77040;SDS011;65974;42.664;23.264;2024-03-08T08:46:28;9.05;;;5.05;;
77040;SDS011;65974;42.664;23.264;2024-03-08T08:48:54;7.00;;;4.20;;
77040;SDS011;65974;42.664;23.264;2024-03-08T08:51:19;7.88;;;4.85;;
77040;SDS011;65974;42.664;23.264;2024-03-08T08:53:45;10.48;;;5.80;;
77040;SDS011;65974;42.664;23.264;2024-03-08T08:56:12;6.97;;;4.00;;
77040;SDS011;65974;42.664;23.264;2024-03-08T08:58:39;9.07;;;5.85;;
77040;SDS011;65974;42.664;23.264;2024-03-08T09:01:06;9.70;;;5.65;;
77040;SDS011;65974;42.664;23.264;2024-03-08T09:03:32;13.98;;;6.63;;
77040;SDS011;65974;42.664;23.264;2024-03-08T09:06:00;8.75;;;4.95;;
77040;SDS011;65974;42.664;23.264;2024-03-08T09:08:27;7.20;;;5.55;;
77040;SDS011;65974;42.664;23.264;2024-03-08T09:10:53;9.90;;;6.97;;
77040;SDS011;65974;42.664;23.264;2024-03-08T09:13:19;4.88;;;3.85;;
77040;SDS011;65974;42.664;23.264;2024-03-08T09:15:45;8.32;;;4.78;;
77040;SDS011;65974;42.664;23.264;2024-03-08T09:18:10;9.25;;;4.80;;
77040;SDS011;65974;42.664;23.264;2024-03-08T09:20:36;4.03;;;3.15;;
77040;SDS011;65974;42.664;23.264;2024-03-08T09:23:02;4.93;;;4.43;;
77040;SDS011;65974;42.664;23.264;2024-03-08T09:25:29;6.22;;;4.10;;
77040;SDS011;65974;42.664;23.264;2024-03-08T09:27:55;6.15;;;3.17;;
77040;SDS011;65974;42.664;23.264;2024-03-08T09:30:20;4.97;;;3.78;;
77040;SDS011;65974;42.664;23.264;2024-03-08T09:32:46;6.75;;;4.00;;
77040;SDS011;65974;42.664;23.264;2024-03-08T09:35:16;7.07;;;3.97;;
77040;SDS011;65974;42.664;23.264;2024-03-08T09:37:41;3.53;;;2.50;;
77040;SDS011;65974;42.664;23.264;2024-03-08T09:40:09;5.25;;;3.38;;
77040;SDS011;65974;42.664;23.264;2024-03-08T09:42:35;5.65;;;3.75;;
77040;SDS011;65974;42.664;23.264;2024-03-08T09:45:07;4.75;;;3.22;;
77040;SDS011;65974;42.664;23.264;2024-03-08T09:47:35;6.10;;;4.00;;
77040;SDS011;65974;42.664;23.264;2024-03-08T09:52:30;4.63;;;3.38;;
77040;SDS011;65974;42.664;23.264;2024-03-08T09:54:57;5.75;;;3.42;;
77040;SDS011;65974;42.664;23.264;2024-03-08T09:57:23;5.90;;;3.97;;
77040;SDS011;65974;42.664;23.264;2024-03-08T09:59:50;6.45;;;3.33;;
77040;SDS011;65974;42.664;23.264;2024-03-08T10:02:20;6.25;;;3.88;;
77040;SDS011;65974;42.664;23.264;2024-03-08T10:04:46;3.63;;;3.17;;
77040;SDS011;65974;42.664;23.264;2024-03-08T10:07:13;3.75;;;2.40;;
77040;SDS011;65974;42.664;23.264;2024-03-08T10:09:38;5.70;;;3.55;;
77040;SDS011;65974;42.664;23.264;2024-03-08T10:12:04;5.63;;;3.53;;
77040;SDS011;65974;42.664;23.264;2024-03-08T10:14:30;4.43;;;2.88;;
77040;SDS011;65974;42.664;23.264;2024-03-08T10:16:57;4.40;;;3.08;;
77040;SDS011;65974;42.664;23.264;2024-03-08T10:19:26;6.40;;;3.67;;
77040;SDS011;65974;42.664;23.264;2024-03-08T10:21:55;4.25;;;3.03;;
77040;SDS011;65974;42.664;23.264;2024-03-08T10:24:24;5.97;;;3.92;;
77040;SDS011;65974;42.664;23.264;2024-03-08T10:26:53;7.32;;;3.75;;
77040;SDS011;65974;42.664;23.264;2024-03-08T10:29:30;4.57;;;2.95;;
77040;SDS011;65974;42.664;23.264;2024-03-08T10:31:56;5.28;;;3.05;;
77040;SDS011;65974;42.664;23.264;2024-03-08T10:34:22;5.28;;;3.50;;
77040;SDS011;65974;42.664;23.264;2024-03-08T10:36:50;3.78;;;2.00;;
77040;SDS011;65974;42.664;23.264;2024-03-08T10:39:20;4.55;;;2.88;;
77040;SDS011;65974;42.664;23.264;2024-03-08T10:41:51;4.78;;;2.75;;
77040;SDS011;65974;42.664;23.264;2024-03-08T10:49:46;7.90;;;2.80;;
77040;SDS011;65974;42.664;23.264;2024-03-08T10:52:29;3.40;;;3.13;;
77040;SDS011;65974;42.664;23.264;2024-03-08T10:54:54;6.00;;;2.47;;
77040;SDS011;65974;42.664;23.264;2024-03-08T10:57:22;3.38;;;2.60;;
77040;SDS011;65974;42.664;23.264;2024-03-08T10:59:49;3.63;;;2.13;;
77040;SDS011;65974;42.664;23.264;2024-03-08T11:02:16;4.50;;;2.80;;
77040;SDS011;65974;42.664;23.264;2024-03-08T11:04:46;4.88;;;2.60;;
77040;SDS011;65974;42.664;23.264;2024-03-08T11:07:16;5.78;;;3.53;;
77040;SDS011;65974;42.664;23.264;2024-03-08T11:09:45;3.17;;;1.92;;
77040;SDS011;65974;42.664;23.264;2024-03-08T11:12:25;3.30;;;2.28;;
77040;SDS011;65974;42.664;23.264;2024-03-08T11:15:28;1.92;;;1.50;;
77040;SDS011;65974;42.664;23.264;2024-03-08T11:17:49;4.32;;;2.50;;
77040;SDS011;65974;42.664;23.264;2024-03-08T11:20:16;4.68;;;2.28;;
77040;SDS011;65974;42.664;23.264;2024-03-08T11:23:18;3.75;;;2.33;;
77040;SDS011;65974;42.664;23.264;2024-03-08T11:25:39;6.25;;;2.65;;
77040;SDS011;65974;42.664;23.264;2024-03-08T11:28:13;4.45;;;2.47;;
77040;SDS011;65974;42.664;23.264;2024-03-08T11:30:46;3.20;;;1.90;;
77040;SDS011;65974;42.664;23.264;2024-03-08T11:33:13;4.43;;;2.22;;
77040;SDS011;65974;42.664;23.264;2024-03-08T11:35:41;6.43;;;2.95;;
77040;SDS011;65974;42.664;23.264;2024-03-08T11:38:11;3.95;;;2.60;;
77040;SDS011;65974;42.664;23.264;2024-03-08T11:40:38;4.47;;;2.20;;
77040;SDS011;65974;42.664;23.264;2024-03-08T11:43:05;3.78;;;2.25;;
77040;SDS011;65974;42.664;23.264;2024-03-08T11:45:33;5.60;;;2.70;;
77040;SDS011;65974;42.664;23.264;2024-03-08T11:48:01;5.93;;;2.55;;
77040;SDS011;65974;42.664;23.264;2024-03-08T11:50:29;3.33;;;2.30;;
77040;SDS011;65974;42.664;23.264;2024-03-08T11:53:00;4.47;;;2.95;;
77040;SDS011;65974;42.664;23.264;2024-03-08T11:55:27;3.90;;;2.80;;
77040;SDS011;65974;42.664;23.264;2024-03-08T11:57:59;6.00;;;2.42;;
77040;SDS011;65974;42.664;23.264;2024-03-08T12:00:29;6.05;;;2.38;;
77040;SDS011;65974;42.664;23.264;2024-03-08T12:03:06;4.43;;;2.60;;
77040;SDS011;65974;42.664;23.264;2024-03-08T12:05:33;5.05;;;2.38;;
77040;SDS011;65974;42.664;23.264;2024-03-08T12:07:59;2.40;;;1.58;;
77040;SDS011;65974;42.664;23.264;2024-03-08T12:10:26;3.35;;;2.00;;
77040;SDS011;65974;42.664;23.264;2024-03-08T12:12:52;3.60;;;2.35;;
77040;SDS011;65974;42.664;23.264;2024-03-08T12:15:20;5.13;;;2.60;;
77040;SDS011;65974;42.664;23.264;2024-03-08T12:17:48;2.70;;;1.60;;
77040;SDS011;65974;42.664;23.264;2024-03-08T12:22:43;2.78;;;2.15;;
77040;SDS011;65974;42.664;23.264;2024-03-08T12:25:10;3.08;;;1.75;;
77040;SDS011;65974;42.664;23.264;2024-03-08T12:27:40;3.83;;;1.73;;
77040;SDS011;65974;42.664;23.264;2024-03-08T12:32:55;2.30;;;1.88;;
77040;SDS011;65974;42.664;23.264;2024-03-08T12:35:23;2.53;;;1.30;;
77040;SDS011;65974;42.664;23.264;2024-03-08T12:37:50;2.03;;;1.60;;
77040;SDS011;65974;42.664;23.264;2024-03-08T12:40:19;5.20;;;2.00;;
77040;SDS011;65974;42.664;23.264;2024-03-08T12:42:55;2.97;;;1.70;;
77040;SDS011;65974;42.664;23.264;2024-03-08T12:45:22;2.60;;;1.40;;
77040;SDS011;65974;42.664;23.264;2024-03-08T12:47:49;2.72;;;1.80;;
77040;SDS011;65974;42.664;23.264;2024-03-08T12:50:25;3.63;;;1.98;;
77040;SDS011;65974;42.664;23.264;2024-03-08T12:52:50;3.60;;;2.03;;
77040;SDS011;65974;42.664;23.264;2024-03-08T12:55:17;3.67;;;1.85;;
77040;SDS011;65974;42.664;23.264;2024-03-08T12:57:43;4.10;;;1.90;;
77040;SDS011;65974;42.664;23.264;2024-03-08T13:00:10;3.22;;;1.90;;
77040;SDS011;65974;42.664;23.264;2024-03-08T13:02:44;3.28;;;1.90;;
77040;SDS011;65974;42.664;23.264;2024-03-08T13:05:11;1.95;;;1.40;;
77040;SDS011;65974;42.664;23.264;2024-03-08T13:07:39;2.50;;;1.50;;
77040;SDS011;65974;42.664;23.264;2024-03-08T13:10:05;5.63;;;3.22;;
77040;SDS011;65974;42.664;23.264;2024-03-08T13:12:32;2.22;;;1.45;;
77040;SDS011;65974;42.664;23.264;2024-03-08T13:14:58;3.20;;;2.10;;
77040;SDS011;65974;42.664;23.264;2024-03-08T13:17:23;4.13;;;2.47;;
77040;SDS011;65974;42.664;23.264;2024-03-08T13:19:49;6.18;;;2.90;;
77040;SDS011;65974;42.664;23.264;2024-03-08T13:22:14;7.28;;;2.63;;
77040;SDS011;65974;42.664;23.264;2024-03-08T13:24:44;3.67;;;2.65;;
77040;SDS011;65974;42.664;23.264;2024-03-08T13:27:10;3.45;;;2.13;;
77040;SDS011;65974;42.664;23.264;2024-03-08T13:29:47;5.13;;;2.25;;
77040;SDS011;65974;42.664;23.264;2024-03-08T13:32:14;3.10;;;2.17;;
77040;SDS011;65974;42.664;23.264;2024-03-08T13:34:45;3.13;;;1.73;;
77040;SDS011;65974;42.664;23.264;2024-03-08T13:37:12;4.13;;;1.67;;
77040;SDS011;65974;42.664;23.264;2024-03-08T13:39:41;3.97;;;2.42;;
77040;SDS011;65974;42.664;23.264;2024-03-08T13:42:11;5.68;;;3.55;;
77040;SDS011;65974;42.664;23.264;2024-03-08T13:44:47;2.25;;;1.58;;
77040;SDS011;65974;42.664;23.264;2024-03-08T13:47:18;2.58;;;1.55;;
77040;SDS011;65974;42.664;23.264;2024-03-08T13:49:43;3.00;;;2.20;;
77040;SDS011;65974;42.664;23.264;2024-03-08T13:52:10;10.10;;;2.80;;
77040;SDS011;65974;42.664;23.264;2024-03-08T13:54:38;2.60;;;2.13;;
77040;SDS011;65974;42.664;23.264;2024-03-08T13:57:03;2.38;;;1.80;;
77040;SDS011;65974;42.664;23.264;2024-03-08T13:59:30;3.35;;;2.28;;
77040;SDS011;65974;42.664;23.264;2024-03-08T14:01:58;3.05;;;2.10;;
77040;SDS011;65974;42.664;23.264;2024-03-08T14:04:24;3.20;;;1.90;;
77040;SDS011;65974;42.664;23.264;2024-03-08T14:06:51;4.75;;;1.65;;
77040;SDS011;65974;42.664;23.264;2024-03-08T14:09:23;3.63;;;1.85;;
77040;SDS011;65974;42.664;23.264;2024-03-08T14:11:51;2.83;;;1.90;;
77040;SDS011;65974;42.664;23.264;2024-03-08T14:14:20;3.10;;;1.90;;
77040;SDS011;65974;42.664;23.264;2024-03-08T14:16:48;4.05;;;1.80;;
77040;SDS011;65974;42.664;23.264;2024-03-08T14:19:14;3.40;;;2.20;;
77040;SDS011;65974;42.664;23.264;2024-03-08T14:21:40;2.00;;;1.48;;
77040;SDS011;65974;42.664;23.264;2024-03-08T14:24:07;1.88;;;1.20;;
77040;SDS011;65974;42.664;23.264;2024-03-08T14:26:33;3.92;;;2.13;;
77040;SDS011;65974;42.664;23.264;2024-03-08T14:28:59;3.05;;;1.50;;
77040;SDS011;65974;42.664;23.264;2024-03-08T14:31:24;3.22;;;1.92;;
77040;SDS011;65974;42.664;23.264;2024-03-08T14:33:51;3.05;;;1.88;;
77040;SDS011;65974;42.664;23.264;2024-03-08T14:36:18;1.58;;;1.20;;
77040;SDS011;65974;42.664;23.264;2024-03-08T14:38:46;1.92;;;1.42;;
77040;SDS011;65974;42.664;23.264;2024-03-08T14:41:12;2.00;;;1.50;;
77040;SDS011;65974;42.664;23.264;2024-03-08T14:43:42;3.55;;;1.55;;
77040;SDS011;65974;42.664;23.264;2024-03-08T14:46:10;5.35;;;1.50;;
77040;SDS011;65974;42.664;23.264;2024-03-08T14:48:39;3.60;;;1.23;;
77040;SDS011;65974;42.664;23.264;2024-03-08T14:51:06;2.70;;;1.38;;
77040;SDS011;65974;42.664;23.264;2024-03-08T14:53:35;1.52;;;1.15;;
77040;SDS011;65974;42.664;23.264;2024-03-08T14:56:01;1.83;;;1.40;;
77040;SDS011;65974;42.664;23.264;2024-03-08T14:58:26;2.28;;;1.45;;
77040;SDS011;65974;42.664;23.264;2024-03-08T15:00:52;1.70;;;1.02;;
77040;SDS011;65974;42.664;23.264;2024-03-08T15:03:21;4.43;;;1.88;;
77040;SDS011;65974;42.664;23.264;2024-03-08T15:05:50;4.38;;;2.22;;
77040;SDS011;65974;42.664;23.264;2024-03-08T15:08:15;6.72;;;3.20;;
77040;SDS011;65974;42.664;23.264;2024-03-08T15:10:48;3.70;;;2.90;;
77040;SDS011;65974;42.664;23.264;2024-03-08T15:13:22;6.25;;;2.85;;
77040;SDS011;65974;42.664;23.264;2024-03-08T15:15:48;5.75;;;3.45;;
77040;SDS011;65974;42.664;23.264;2024-03-08T15:18:20;11.63;;;4.70;;
77040;SDS011;65974;42.664;23.264;2024-03-08T15:20:59;3.72;;;1.90;;
77040;SDS011;65974;42.664;23.264;2024-03-08T15:23:35;4.28;;;1.77;;
77040;SDS011;65974;42.664;23.264;2024-03-08T15:26:02;1.85;;;1.75;;
77040;SDS011;65974;42.664;23.264;2024-03-08T15:28:29;2.85;;;1.63;;
77040;SDS011;65974;42.664;23.264;2024-03-08T15:31:05;5.57;;;2.58;;
77040;SDS011;65974;42.664;23.264;2024-03-08T15:33:32;5.03;;;2.97;;
77040;SDS011;65974;42.664;23.264;2024-03-08T15:35:58;3.50;;;2.67;;
77040;SDS011;65974;42.664;23.264;2024-03-08T15:38:25;4.20;;;2.30;;